Luthersville, Georgia
Current Conditions -  °F | °C
As of 12:15 AM on Sunday 21 Dec 2014 (Local Time) from KCCO Reporting Station
Haze Haze  
Wind Chill: 46°   Ceiling: 700
Heat Index: 49°   Visibility: 5mi
Dew Point: 48°   Wind: 8mph
Humidity: 97%   Direction: 80°E
Pressure: 30.19"   Gusts: NA
Location:  33.21°N, 84.74°W
Report Text: KCCO 210515Z AUTO 08007KT 5SM BR OVC007 10/09 A3019 RMK AO2 T00950091
Loading
Personal Weather Stations






























Interactive Weather Map New forecast layout! Learn more

10-Day Weather Forecast

Advertisements
Track Severe Weather on mobile